Time;durP1;ratioP1;P1;durP2;ratioP2;P2;SDS_P1;SDS_P2;PMS_P1;PMS_P2;Temp;Humidity;BMP_temperature;BMP_pressure;BME280_temperature;BME280_humidity;BME280_pressure;Samples;Min_cycle;Max_cycle;Signal;HPM_P1;HPM_P2
2023/01/28 00:02:17;;;;;;;7.77;6.07;;;;;;;;;;5079600;28;20979;-79
2023/01/28 00:04:44;;;;;;;7.83;6.63;;;;;;;;;;5083134;28;20477;-79
2023/01/28 00:07:11;;;;;;;6.00;5.50;;;;;;;;;;5082406;28;20475;-79
2023/01/28 00:09:38;;;;;;;6.47;5.87;;;;;;;;;;5082200;28;20466;-79
2023/01/28 00:12:04;;;;;;;7.03;6.13;;;;;;;;;;5081839;28;20953;-79
2023/01/28 00:14:31;;;;;;;6.20;5.60;;;;;;;;;;5080401;28;20477;-79
2023/01/28 00:16:59;;;;;;;7.00;6.40;;;;;;;;;;5079879;28;20478;-79
2023/01/28 00:19:25;;;;;;;6.93;6.23;;;;;;;;;;5081304;28;20461;-79
2023/01/28 00:21:52;;;;;;;6.97;6.27;;;;;;;;;;5080347;28;20485;-79
2023/01/28 00:24:18;;;;;;;7.00;5.77;;;;;;;;;;5082858;28;20717;-79
2023/01/28 00:26:44;;;;;;;7.23;6.50;;;;;;;;;;5079679;28;20478;-79
2023/01/28 00:29:11;;;;;;;7.17;6.37;;;;;;;;;;5082423;28;20458;-79
2023/01/28 00:31:38;;;;;;;8.87;6.57;;;;;;;;;;5081542;28;20481;-79
2023/01/28 00:34:06;;;;;;;9.50;7.17;;;;;;;;;;5080792;28;20474;-79
2023/01/28 00:36:38;;;;;;;7.10;6.40;;;;;;;;;;5080928;28;20474;-79
2023/01/28 00:39:05;;;;;;;7.50;6.77;;;;;;;;;;5074485;28;20588;-79
2023/01/28 00:41:32;;;;;;;9.03;7.20;;;;;;;;;;5080274;28;20471;-80
2023/01/28 00:43:58;;;;;;;8.27;7.47;;;;;;;;;;5081205;28;20491;-79
2023/01/28 00:46:25;;;;;;;7.50;6.80;;;;;;;;;;5079610;28;20470;-79
2023/01/28 00:48:51;;;;;;;9.90;7.03;;;;;;;;;;5080089;28;20483;-80
2023/01/28 00:51:21;;;;;;;10.00;7.23;;;;;;;;;;5081083;28;20474;-79
2023/01/28 00:53:47;;;;;;;7.53;6.80;;;;;;;;;;5079867;28;20475;-79
2023/01/28 00:56:15;;;;;;;8.57;7.67;;;;;;;;;;5081185;28;20483;-79
2023/01/28 00:58:42;;;;;;;8.57;7.80;;;;;;;;;;5080967;28;20963;-79
2023/01/28 01:01:10;;;;;;;11.80;7.63;;;;;;;;;;5080370;28;20479;-79
2023/01/28 01:03:36;;;;;;;9.40;8.53;;;;;;;;;;5077782;28;20545;-79
2023/01/28 01:06:02;;;;;;;11.13;7.43;;;;;;;;;;5078959;28;20477;-79
2023/01/28 01:08:34;;;;;;;8.90;7.17;;;;;;;;;;5081738;28;20972;-80
2023/01/28 01:11:02;;;;;;;13.43;7.83;;;;;;;;;;5080848;28;21019;-79
2023/01/28 01:13:29;;;;;;;10.10;8.80;;;;;;;;;;5079295;28;20481;-79
2023/01/28 01:16:01;;;;;;;8.73;8.00;;;;;;;;;;5081616;28;20561;-79
2023/01/28 01:18:27;;;;;;;8.33;7.60;;;;;;;;;;5081308;28;20491;-79
2023/01/28 01:20:57;;;;;;;10.10;7.57;;;;;;;;;;5077595;28;20486;-79
2023/01/28 01:23:24;;;;;;;14.00;7.40;;;;;;;;;;5079704;28;20478;-79
2023/01/28 01:25:52;;;;;;;9.90;8.90;;;;;;;;;;5081562;28;20481;-79
2023/01/28 01:28:19;;;;;;;9.17;8.27;;;;;;;;;;5079660;28;20470;-80
2023/01/28 01:30:46;;;;;;;8.23;7.50;;;;;;;;;;5080267;28;20477;-79
2023/01/28 01:33:12;;;;;;;11.53;7.40;;;;;;;;;;5079911;28;20458;-79
2023/01/28 01:35:39;;;;;;;9.63;7.90;;;;;;;;;;5079358;28;21029;-79
2023/01/28 01:38:05;;;;;;;10.03;8.40;;;;;;;;;;5079311;28;20831;-79
2023/01/28 01:40:32;;;;;;;8.93;8.13;;;;;;;;;;5079572;28;20494;-79
2023/01/28 01:42:59;;;;;;;16.07;8.77;;;;;;;;;;5080140;28;20855;-79
2023/01/28 01:45:26;;;;;;;9.33;8.43;;;;;;;;;;5078496;28;20958;-79
2023/01/28 01:47:57;;;;;;;8.77;7.97;;;;;;;;;;5079141;28;20459;-79
2023/01/28 01:50:25;;;;;;;10.40;8.40;;;;;;;;;;5078884;28;20885;-79
2023/01/28 01:52:54;;;;;;;10.50;9.47;;;;;;;;;;5079304;28;20489;-79
2023/01/28 01:55:24;;;;;;;8.90;7.80;;;;;;;;;;5078822;28;20461;-79
2023/01/28 01:57:51;;;;;;;10.90;8.87;;;;;;;;;;5079792;28;20508;-79
2023/01/28 02:00:21;;;;;;;9.20;7.90;;;;;;;;;;5079329;28;20508;-79
2023/01/28 02:02:48;;;;;;;7.77;6.93;;;;;;;;;;5077732;28;20474;-79
2023/01/28 02:05:16;;;;;;;7.20;6.30;;;;;;;;;;5075473;28;20536;-79
2023/01/28 02:07:43;;;;;;;9.30;8.40;;;;;;;;;;5076567;28;20472;-79
2023/01/28 02:10:10;;;;;;;6.60;6.00;;;;;;;;;;5078448;28;20463;-79
2023/01/28 02:12:40;;;;;;;8.00;7.20;;;;;;;;;;5078162;28;20462;-79
2023/01/28 02:15:08;;;;;;;11.60;7.40;;;;;;;;;;5079685;28;20453;-79
2023/01/28 02:17:36;;;;;;;11.10;7.57;;;;;;;;;;5079569;28;20477;-79
2023/01/28 02:20:05;;;;;;;10.00;7.37;;;;;;;;;;5078560;28;20470;-79
2023/01/28 02:22:51;;;;;;;9.23;8.23;;;;;;;;;;5077096;28;20485;-79
2023/01/28 02:25:35;;;;;;;8.27;7.40;;;;;;;;;;5077370;28;20537;-79
2023/01/28 02:28:09;;;;;;;9.70;6.97;;;;;;;;;;5039508;28;20453;-79
2023/01/28 02:30:38;;;;;;;8.90;7.50;;;;;;;;;;5076620;28;20478;-79
2023/01/28 02:33:08;;;;;;;8.53;7.57;;;;;;;;;;5079396;28;20470;-79
2023/01/28 02:35:37;;;;;;;8.93;8.03;;;;;;;;;;5077402;28;20470;-79
2023/01/28 02:38:08;;;;;;;12.30;8.00;;;;;;;;;;5079587;28;20545;-79
2023/01/28 02:41:00;;;;;;;10.97;8.40;;;;;;;;;;5080335;28;20478;-79
2023/01/28 02:43:30;;;;;;;12.17;7.90;;;;;;;;;;5077811;28;20477;-79
2023/01/28 02:48:54;;;;;;;8.97;8.00;;;;;;;;;;5038039;28;20522;-79
2023/01/28 02:51:32;;;;;;;9.13;8.20;;;;;;;;;;5069000;28;20466;-79
2023/01/28 02:54:02;;;;;;;9.63;8.60;;;;;;;;;;5079783;28;20494;-79
2023/01/28 02:56:32;;;;;;;9.67;7.90;;;;;;;;;;5079751;28;20475;-79
2023/01/28 02:59:29;;;;;;;13.87;8.10;;;;;;;;;;5078500;28;20490;-79
2023/01/28 03:01:57;;;;;;;10.07;8.80;;;;;;;;;;5078397;28;20597;-79
2023/01/28 03:04:26;;;;;;;8.53;7.40;;;;;;;;;;5083431;28;20481;-79
2023/01/28 03:06:54;;;;;;;9.47;8.50;;;;;;;;;;5080998;28;20477;-79
2023/01/28 03:09:25;;;;;;;10.10;8.67;;;;;;;;;;5084319;28;20461;-79
2023/01/28 03:36:47;;;;;;;9.47;8.47;;;;;;;;;;5082104;28;20496;-80
2023/01/28 03:39:13;;;;;;;10.60;9.50;;;;;;;;;;5081396;28;20505;-79
2023/01/28 03:41:40;;;;;;;11.53;7.87;;;;;;;;;;5083257;28;20484;-79
2023/01/28 03:46:52;;;;;;;15.33;8.93;;;;;;;;;;5082459;28;20469;-79
2023/01/28 03:49:18;;;;;;;13.80;9.93;;;;;;;;;;5080891;28;20446;-79
2023/01/28 03:51:46;;;;;;;11.57;10.40;;;;;;;;;;5080536;28;20477;-79
2023/01/28 03:54:12;;;;;;;11.07;9.47;;;;;;;;;;5080718;28;20553;-79
2023/01/28 03:56:39;;;;;;;13.20;8.90;;;;;;;;;;5080666;28;20473;-79
2023/01/28 03:59:05;;;;;;;14.50;10.10;;;;;;;;;;5081808;28;21030;-79
2023/01/28 04:01:32;;;;;;;10.00;8.40;;;;;;;;;;5082029;28;20481;-79
2023/01/28 04:03:59;;;;;;;12.00;9.30;;;;;;;;;;5081325;28;20521;-79
2023/01/28 04:06:27;;;;;;;10.47;9.07;;;;;;;;;;5081640;28;20512;-79
2023/01/28 04:08:58;;;;;;;12.03;9.10;;;;;;;;;;5080688;28;20458;-79
2023/01/28 04:11:25;;;;;;;8.53;7.63;;;;;;;;;;5079955;28;20481;-79
2023/01/28 04:13:51;;;;;;;11.20;9.17;;;;;;;;;;5078868;28;20506;-79
2023/01/28 04:16:19;;;;;;;8.17;7.37;;;;;;;;;;5081756;28;20855;-79
2023/01/28 04:18:45;;;;;;;9.23;8.33;;;;;;;;;;5079249;28;20510;-80
2023/01/28 04:21:13;;;;;;;13.93;8.03;;;;;;;;;;5079744;28;20466;-79
2023/01/28 04:23:40;;;;;;;9.20;8.20;;;;;;;;;;5080881;28;20474;-79
2023/01/28 04:26:07;;;;;;;9.43;7.83;;;;;;;;;;5080742;28;20471;-80
2023/01/28 04:28:33;;;;;;;11.40;9.60;;;;;;;;;;5082393;28;20446;-79
2023/01/28 04:31:00;;;;;;;10.77;8.43;;;;;;;;;;5080820;28;20883;-79
2023/01/28 04:33:26;;;;;;;12.53;9.87;;;;;;;;;;5082467;28;20490;-79
2023/01/28 04:35:52;;;;;;;9.40;8.20;;;;;;;;;;5080822;28;20476;-80
2023/01/28 04:38:20;;;;;;;10.13;8.67;;;;;;;;;;5081225;28;20479;-79
2023/01/28 04:40:49;;;;;;;13.10;9.30;;;;;;;;;;5079772;28;20478;-79
2023/01/28 04:43:15;;;;;;;11.40;9.00;;;;;;;;;;5081585;28;20849;-79
2023/01/28 04:45:42;;;;;;;10.77;9.20;;;;;;;;;;5080115;28;20488;-79
2023/01/28 04:48:08;;;;;;;10.60;8.13;;;;;;;;;;5080916;28;20465;-79
2023/01/28 04:50:34;;;;;;;13.93;9.27;;;;;;;;;;5080211;28;21011;-79
2023/01/28 04:53:01;;;;;;;9.57;8.67;;;;;;;;;;5079930;28;20478;-79
2023/01/28 04:55:28;;;;;;;12.10;8.20;;;;;;;;;;5082604;28;20469;-79
2023/01/28 04:57:55;;;;;;;9.37;8.17;;;;;;;;;;5081365;28;20485;-79
2023/01/28 05:00:21;;;;;;;12.10;8.47;;;;;;;;;;5080268;28;20833;-79
2023/01/28 05:02:48;;;;;;;11.73;9.47;;;;;;;;;;5079358;28;20454;-79
2023/01/28 05:05:14;;;;;;;12.03;8.97;;;;;;;;;;5080948;28;20467;-80
2023/01/28 05:07:41;;;;;;;8.37;7.43;;;;;;;;;;5080684;28;20461;-79
2023/01/28 05:10:07;;;;;;;12.13;10.77;;;;;;;;;;5082247;28;20460;-80
2023/01/28 05:12:35;;;;;;;10.47;9.33;;;;;;;;;;5082726;28;20522;-79
2023/01/28 05:15:03;;;;;;;17.83;9.20;;;;;;;;;;5080494;27;20466;-79
2023/01/28 05:17:29;;;;;;;10.97;9.03;;;;;;;;;;5081610;28;21043;-79
2023/01/28 05:19:57;;;;;;;11.57;9.67;;;;;;;;;;5081662;28;20474;-80
2023/01/28 05:22:23;;;;;;;9.27;8.37;;;;;;;;;;5081384;28;20444;-80
2023/01/28 05:24:50;;;;;;;11.27;9.63;;;;;;;;;;5082346;28;20470;-80
2023/01/28 05:27:16;;;;;;;10.07;9.07;;;;;;;;;;5081195;28;20439;-80
2023/01/28 05:29:44;;;;;;;10.47;8.93;;;;;;;;;;5081157;28;20462;-79
2023/01/28 05:32:10;;;;;;;13.10;9.37;;;;;;;;;;5080867;28;21015;-80
2023/01/28 05:34:38;;;;;;;10.60;9.60;;;;;;;;;;5078750;28;20483;-80
2023/01/28 05:37:04;;;;;;;12.77;10.60;;;;;;;;;;5080082;28;20482;-81
2023/01/28 05:39:31;;;;;;;12.93;11.20;;;;;;;;;;5078815;28;20478;-79
2023/01/28 05:41:59;;;;;;;13.33;10.37;;;;;;;;;;5079416;28;20532;-80
2023/01/28 05:44:25;;;;;;;12.90;9.07;;;;;;;;;;5079651;28;20486;-80
2023/01/28 05:46:53;;;;;;;11.73;10.23;;;;;;;;;;5080824;28;21015;-80
2023/01/28 05:49:19;;;;;;;12.00;10.53;;;;;;;;;;5078736;28;20827;-83
2023/01/28 05:51:48;;;;;;;13.77;10.63;;;;;;;;;;5079891;28;20861;-82
2023/01/28 05:54:15;;;;;;;11.57;10.30;;;;;;;;;;5079867;28;20479;-82
2023/01/28 05:56:42;;;;;;;13.33;9.90;;;;;;;;;;5078990;28;20491;-82
2023/01/28 05:59:10;;;;;;;15.47;10.40;;;;;;;;;;5078571;28;20486;-80
2023/01/28 06:01:37;;;;;;;15.77;10.77;;;;;;;;;;5076875;28;20479;-80
2023/01/28 06:04:06;;;;;;;14.80;10.83;;;;;;;;;;5080892;28;20489;-80
2023/01/28 06:06:34;;;;;;;18.27;11.00;;;;;;;;;;5078074;28;20474;-79
2023/01/28 06:09:00;;;;;;;13.97;10.73;;;;;;;;;;5080693;28;20455;-79
2023/01/28 06:11:27;;;;;;;14.20;11.10;;;;;;;;;;5079510;28;20478;-80
2023/01/28 06:13:54;;;;;;;12.70;11.37;;;;;;;;;;5078915;28;20486;-80
2023/01/28 06:16:20;;;;;;;12.90;10.10;;;;;;;;;;5077156;28;20477;-80
2023/01/28 06:18:46;;;;;;;13.60;10.50;;;;;;;;;;5080471;28;20482;-80
2023/01/28 06:21:14;;;;;;;13.40;11.07;;;;;;;;;;5081197;28;20461;-80
2023/01/28 06:23:40;;;;;;;15.47;11.50;;;;;;;;;;5079024;28;20482;-80
2023/01/28 06:26:07;;;;;;;17.17;10.37;;;;;;;;;;5081150;28;20463;-79
2023/01/28 06:28:33;;;;;;;17.40;10.40;;;;;;;;;;5079131;28;20469;-80
2023/01/28 06:31:00;;;;;;;15.93;10.57;;;;;;;;;;5076073;28;20478;-80
2023/01/28 06:33:27;;;;;;;19.23;11.30;;;;;;;;;;5078253;28;20477;-80
2023/01/28 06:35:54;;;;;;;19.17;10.60;;;;;;;;;;5079200;28;20570;-80
2023/01/28 06:38:22;;;;;;;12.53;9.70;;;;;;;;;;5084933;28;20482;-80
2023/01/28 06:40:51;;;;;;;15.00;10.23;;;;;;;;;;5083072;28;20462;-80
2023/01/28 06:43:17;;;;;;;15.70;11.33;;;;;;;;;;5083170;28;20465;-80
2023/01/28 06:45:44;;;;;;;15.60;12.00;;;;;;;;;;5081862;28;20477;-80
2023/01/28 06:48:10;;;;;;;15.00;11.40;;;;;;;;;;5083027;28;20454;-79
2023/01/28 06:50:37;;;;;;;12.37;10.20;;;;;;;;;;5082056;28;20484;-80
2023/01/28 06:53:03;;;;;;;19.23;11.57;;;;;;;;;;5083199;28;20474;-79
2023/01/28 06:55:31;;;;;;;14.47;9.73;;;;;;;;;;5082217;28;20866;-81
2023/01/28 06:57:57;;;;;;;16.47;10.73;;;;;;;;;;5082908;28;20459;-82
2023/01/28 07:00:24;;;;;;;16.80;11.40;;;;;;;;;;5081220;28;21029;-82
2023/01/28 07:02:50;;;;;;;12.47;9.70;;;;;;;;;;5082968;28;20482;-82
2023/01/28 07:05:17;;;;;;;15.30;11.83;;;;;;;;;;5079593;28;20465;-82
2023/01/28 07:07:44;;;;;;;17.23;11.07;;;;;;;;;;5081326;28;20599;-82
2023/01/28 07:10:11;;;;;;;25.13;11.87;;;;;;;;;;5082880;28;20455;-82
2023/01/28 07:12:38;;;;;;;18.10;12.60;;;;;;;;;;5083126;28;20458;-82
2023/01/28 07:15:05;;;;;;;18.60;13.27;;;;;;;;;;5082831;27;20458;-82
2023/01/28 07:17:32;;;;;;;17.10;12.90;;;;;;;;;;5082883;28;20466;-82
2023/01/28 07:19:58;;;;;;;16.90;11.67;;;;;;;;;;5081515;28;20558;-82
2023/01/28 07:22:25;;;;;;;23.53;14.03;;;;;;;;;;5082713;28;20462;-82
2023/01/28 07:24:51;;;;;;;17.57;12.90;;;;;;;;;;5081742;28;20481;-82
2023/01/28 07:27:17;;;;;;;22.13;13.50;;;;;;;;;;5080060;28;20466;-82
2023/01/28 07:29:45;;;;;;;19.47;13.53;;;;;;;;;;5082624;28;20447;-82
2023/01/28 07:32:12;;;;;;;18.13;13.10;;;;;;;;;;5082479;27;20478;-82
2023/01/28 07:34:40;;;;;;;23.97;13.60;;;;;;;;;;5078209;28;20471;-82
2023/01/28 07:37:07;;;;;;;20.57;15.13;;;;;;;;;;5080519;28;20494;-80
2023/01/28 07:39:33;;;;;;;20.83;14.37;;;;;;;;;;5078718;28;20538;-80
2023/01/28 07:41:59;;;;;;;22.17;15.70;;;;;;;;;;5081611;28;20584;-79
2023/01/28 07:44:26;;;;;;;23.63;15.50;;;;;;;;;;5083206;28;20882;-80
2023/01/28 07:46:54;;;;;;;24.70;14.57;;;;;;;;;;5082854;28;20475;-80
2023/01/28 07:49:20;;;;;;;21.23;14.60;;;;;;;;;;5081528;28;20451;-80
2023/01/28 07:51:49;;;;;;;24.43;15.47;;;;;;;;;;5083566;28;20474;-79
2023/01/28 07:54:15;;;;;;;25.50;15.40;;;;;;;;;;5082621;28;20466;-80
2023/01/28 07:56:42;;;;;;;21.60;14.10;;;;;;;;;;5080012;28;20471;-80
2023/01/28 07:59:08;;;;;;;23.10;14.97;;;;;;;;;;5081822;28;21046;-79
2023/01/28 08:01:35;;;;;;;21.53;15.53;;;;;;;;;;5081812;28;20980;-80
2023/01/28 08:04:03;;;;;;;17.93;13.23;;;;;;;;;;5081044;28;20475;-79
2023/01/28 08:06:29;;;;;;;24.47;14.77;;;;;;;;;;5077105;28;20826;-79
2023/01/28 08:08:55;;;;;;;24.67;16.70;;;;;;;;;;5082250;28;20463;-80
2023/01/28 08:11:22;;;;;;;19.57;13.37;;;;;;;;;;5078047;28;21208;-80
2023/01/28 08:13:49;;;;;;;24.73;15.00;;;;;;;;;;5077814;28;20474;-80
2023/01/28 08:16:15;;;;;;;21.73;14.10;;;;;;;;;;5081075;28;20478;-78
2023/01/28 08:18:42;;;;;;;26.00;15.30;;;;;;;;;;5081996;28;20449;-79
2023/01/28 08:21:10;;;;;;;19.97;15.97;;;;;;;;;;5079261;28;21011;-80
2023/01/28 08:23:36;;;;;;;19.90;13.63;;;;;;;;;;5078512;28;20482;-79
2023/01/28 08:26:05;;;;;;;25.33;16.13;;;;;;;;;;5078895;28;20501;-80
2023/01/28 08:28:32;;;;;;;21.90;16.17;;;;;;;;;;5081433;28;20458;-80
2023/01/28 08:31:00;;;;;;;22.73;16.37;;;;;;;;;;5080154;28;20469;-79
2023/01/28 08:33:27;;;;;;;26.57;16.80;;;;;;;;;;5081689;28;20470;-80
2023/01/28 08:35:54;;;;;;;31.47;20.40;;;;;;;;;;5081312;28;20474;-80
2023/01/28 08:38:22;;;;;;;28.40;17.50;;;;;;;;;;5080441;28;20450;-79
2023/01/28 08:40:49;;;;;;;23.37;15.73;;;;;;;;;;5078832;28;20990;-79
2023/01/28 08:43:16;;;;;;;27.63;17.33;;;;;;;;;;5080878;28;20500;-81
2023/01/28 08:45:42;;;;;;;23.70;14.73;;;;;;;;;;5080816;28;20506;-79
2023/01/28 08:48:11;;;;;;;27.53;17.33;;;;;;;;;;5082696;28;20458;-80
2023/01/28 08:50:38;;;;;;;29.40;17.80;;;;;;;;;;5081707;28;20474;-80
2023/01/28 08:53:06;;;;;;;27.03;17.00;;;;;;;;;;5081884;28;20488;-80
2023/01/28 08:55:34;;;;;;;32.03;20.07;;;;;;;;;;5080534;28;20462;-80
2023/01/28 08:58:02;;;;;;;28.73;18.77;;;;;;;;;;5080891;28;20462;-82
2023/01/28 09:00:28;;;;;;;31.73;18.10;;;;;;;;;;5078761;28;20470;-82
2023/01/28 09:02:54;;;;;;;28.47;18.90;;;;;;;;;;5080978;28;20501;-82
2023/01/28 09:05:21;;;;;;;32.93;19.83;;;;;;;;;;5078196;28;20466;-82
2023/01/28 09:07:47;;;;;;;26.47;18.10;;;;;;;;;;5080032;28;20836;-82
2023/01/28 09:10:15;;;;;;;26.67;17.50;;;;;;;;;;5081833;28;20473;-82
2023/01/28 09:12:42;;;;;;;30.20;18.23;;;;;;;;;;5080027;28;20643;-82
2023/01/28 09:15:10;;;;;;;29.63;18.33;;;;;;;;;;5078436;28;20454;-80
2023/01/28 09:17:36;;;;;;;29.10;17.30;;;;;;;;;;5080242;28;20434;-79
2023/01/28 09:20:03;;;;;;;25.83;18.10;;;;;;;;;;5080235;28;20483;-79
2023/01/28 09:22:30;;;;;;;26.80;17.40;;;;;;;;;;5081382;28;20554;-81
2023/01/28 09:24:56;;;;;;;28.17;17.80;;;;;;;;;;5079971;28;20451;-80
2023/01/28 09:27:22;;;;;;;27.57;18.17;;;;;;;;;;5078885;28;20465;-82
2023/01/28 09:29:51;;;;;;;23.50;15.07;;;;;;;;;;5080724;28;20460;-82
2023/01/28 09:32:17;;;;;;;32.93;17.60;;;;;;;;;;5078400;28;20457;-82
2023/01/28 09:34:44;;;;;;;29.43;16.70;;;;;;;;;;5079657;28;20471;-82
2023/01/28 09:37:11;;;;;;;28.30;16.73;;;;;;;;;;5075472;28;20478;-82
2023/01/28 09:39:37;;;;;;;29.30;18.10;;;;;;;;;;5079096;28;20478;-82
2023/01/28 09:42:13;;;;;;;27.90;17.33;;;;;;;;;;5078438;28;20482;-82
2023/01/28 09:44:48;;;;;;;33.20;18.20;;;;;;;;;;5079989;28;20470;-79
2023/01/28 09:47:20;;;;;;;25.77;17.07;;;;;;;;;;5080980;28;20552;-80
2023/01/28 09:49:48;;;;;;;31.33;18.33;;;;;;;;;;5079088;28;20469;-82
2023/01/28 09:52:17;;;;;;;32.10;19.90;;;;;;;;;;5080837;28;20460;-79
2023/01/28 09:54:45;;;;;;;32.60;18.00;;;;;;;;;;5079694;28;20474;-79
2023/01/28 09:57:14;;;;;;;33.10;18.90;;;;;;;;;;5078661;28;20824;-79
2023/01/28 09:59:40;;;;;;;27.37;18.13;;;;;;;;;;5080841;28;20478;-79
2023/01/28 10:02:20;;;;;;;30.37;16.73;;;;;;;;;;5079850;28;20471;-83
2023/01/28 10:04:52;;;;;;;31.80;18.73;;;;;;;;;;5080414;28;20566;-79
2023/01/28 10:07:26;;;;;;;30.00;18.40;;;;;;;;;;5079565;28;20469;-79
2023/01/28 10:09:56;;;;;;;31.30;17.93;;;;;;;;;;5080110;28;20438;-82
2023/01/28 10:12:30;;;;;;;33.17;21.20;;;;;;;;;;5077805;28;20538;-82
2023/01/28 10:15:05;;;;;;;32.23;19.00;;;;;;;;;;5078903;28;20484;-82
2023/01/28 10:17:33;;;;;;;32.13;19.60;;;;;;;;;;5079814;28;20447;-81
2023/01/28 10:20:03;;;;;;;29.47;18.83;;;;;;;;;;5078690;28;20984;-79
2023/01/28 10:22:30;;;;;;;27.33;17.90;;;;;;;;;;5079924;28;20438;-79
2023/01/28 10:25:00;;;;;;;39.93;26.90;;;;;;;;;;5079898;28;20836;-79
2023/01/28 10:27:31;;;;;;;33.23;19.10;;;;;;;;;;5079199;28;20482;-79
2023/01/28 10:29:58;;;;;;;30.67;18.63;;;;;;;;;;5077449;28;20450;-79
2023/01/28 10:32:27;;;;;;;30.70;18.40;;;;;;;;;;5076681;28;20438;-79
2023/01/28 10:34:54;;;;;;;35.30;19.97;;;;;;;;;;5076706;28;20477;-79
2023/01/28 10:37:22;;;;;;;29.77;18.00;;;;;;;;;;5076616;28;20462;-79
2023/01/28 10:39:48;;;;;;;33.33;19.47;;;;;;;;;;5075623;28;20475;-79
2023/01/28 10:42:20;;;;;;;27.13;16.40;;;;;;;;;;5080258;28;20454;-79
2023/01/28 10:44:47;;;;;;;27.90;16.93;;;;;;;;;;5077448;28;20487;-79
2023/01/28 10:47:15;;;;;;;29.27;18.77;;;;;;;;;;5077107;28;20462;-79
2023/01/28 10:49:43;;;;;;;29.10;17.57;;;;;;;;;;5077576;28;20477;-78
2023/01/28 10:52:12;;;;;;;24.00;16.03;;;;;;;;;;5078305;28;20474;-79
2023/01/28 10:54:40;;;;;;;30.00;17.90;;;;;;;;;;5078188;28;20860;-79
2023/01/28 10:57:11;;;;;;;26.87;16.50;;;;;;;;;;5078490;28;20479;-79
2023/01/28 10:59:40;;;;;;;23.60;16.00;;;;;;;;;;5078251;28;20454;-79
2023/01/28 11:02:20;;;;;;;23.60;15.87;;;;;;;;;;5077576;28;20479;-83
2023/01/28 11:04:46;;;;;;;29.67;16.70;;;;;;;;;;5078794;28;21007;-78
2023/01/28 11:07:17;;;;;;;23.00;14.27;;;;;;;;;;5077975;28;20510;-79
2023/01/28 11:09:46;;;;;;;27.70;17.00;;;;;;;;;;5079135;28;20461;-79
2023/01/28 11:12:13;;;;;;;22.83;14.70;;;;;;;;;;5078824;28;20466;-79
2023/01/28 11:14:49;;;;;;;22.10;14.20;;;;;;;;;;5079551;28;20474;-79
2023/01/28 11:17:17;;;;;;;21.40;14.03;;;;;;;;;;5077929;28;20482;-79
2023/01/28 11:19:43;;;;;;;23.67;14.87;;;;;;;;;;5076312;28;20836;-79
2023/01/28 11:22:21;;;;;;;23.90;15.53;;;;;;;;;;5078754;27;20485;-79
2023/01/28 11:24:49;;;;;;;23.50;15.13;;;;;;;;;;5080623;28;20493;-80
2023/01/28 11:27:16;;;;;;;22.30;15.03;;;;;;;;;;5083376;28;20488;-79
2023/01/28 11:29:43;;;;;;;22.23;14.60;;;;;;;;;;5083062;28;20963;-79
2023/01/28 11:32:16;;;;;;;21.10;13.70;;;;;;;;;;5083399;28;20471;-79
2023/01/28 11:34:48;;;;;;;23.87;14.77;;;;;;;;;;5081517;28;20478;-79
2023/01/28 11:37:15;;;;;;;20.97;14.27;;;;;;;;;;5081964;28;20477;-80
2023/01/28 11:39:42;;;;;;;21.57;13.20;;;;;;;;;;5083455;28;20869;-79
2023/01/28 11:42:14;;;;;;;20.83;13.10;;;;;;;;;;5083006;28;20470;-79
2023/01/28 11:44:41;;;;;;;21.30;12.80;;;;;;;;;;5068361;27;20478;-79
2023/01/28 11:47:15;;;;;;;19.27;12.30;;;;;;;;;;5078358;28;20554;-79
2023/01/28 11:49:49;;;;;;;20.73;12.47;;;;;;;;;;5080806;28;20474;-79
2023/01/28 11:52:19;;;;;;;19.93;13.27;;;;;;;;;;5080850;28;20451;-80
2023/01/28 11:54:53;;;;;;;17.50;12.57;;;;;;;;;;5080889;28;20506;-79
2023/01/28 11:57:23;;;;;;;25.10;14.27;;;;;;;;;;5078656;28;20460;-79
2023/01/28 11:59:56;;;;;;;21.63;13.03;;;;;;;;;;5081638;28;20485;-79
2023/01/28 12:02:31;;;;;;;20.80;13.67;;;;;;;;;;5079309;28;20450;-80
2023/01/28 12:05:08;;;;;;;18.23;12.80;;;;;;;;;;5080099;28;20470;-79
2023/01/28 12:07:40;;;;;;;18.00;13.27;;;;;;;;;;5079275;28;20498;-82
2023/01/28 12:10:09;;;;;;;16.43;11.93;;;;;;;;;;5080547;28;20477;-80
2023/01/28 12:12:50;;;;;;;18.60;11.67;;;;;;;;;;5081908;28;20454;-80
2023/01/28 12:15:23;;;;;;;18.70;13.07;;;;;;;;;;5080927;28;20478;-79
2023/01/28 12:17:56;;;;;;;25.23;12.70;;;;;;;;;;5082021;28;20449;-80
2023/01/28 12:20:30;;;;;;;18.23;12.37;;;;;;;;;;5080374;28;20486;-80
2023/01/28 12:23:11;;;;;;;19.40;12.30;;;;;;;;;;5082222;28;20528;-79
2023/01/28 12:25:45;;;;;;;18.57;12.80;;;;;;;;;;5087382;28;20463;-80
2023/01/28 12:28:16;;;;;;;18.97;11.70;;;;;;;;;;5080655;28;20459;-80
2023/01/28 12:31:00;;;;;;;18.83;12.30;;;;;;;;;;5081049;28;20869;-79
2023/01/28 12:33:41;;;;;;;18.70;11.40;;;;;;;;;;5078629;28;20504;-80
2023/01/28 12:36:12;;;;;;;20.00;12.10;;;;;;;;;;5081615;28;20446;-79
2023/01/28 12:38:44;;;;;;;17.53;10.70;;;;;;;;;;5082434;28;20480;-80
2023/01/28 12:41:14;;;;;;;18.77;11.63;;;;;;;;;;5081682;28;20483;-80
2023/01/28 12:43:49;;;;;;;16.20;11.23;;;;;;;;;;5080823;28;20459;-79
2023/01/28 12:46:25;;;;;;;15.73;11.77;;;;;;;;;;5079978;28;20450;-79
2023/01/28 12:48:52;;;;;;;17.10;12.80;;;;;;;;;;5081310;28;20465;-79
2023/01/28 12:51:21;;;;;;;17.40;11.37;;;;;;;;;;5079866;28;20438;-80
2023/01/28 12:53:49;;;;;;;16.83;11.50;;;;;;;;;;5080763;28;20474;-80
2023/01/28 12:56:17;;;;;;;15.60;10.60;;;;;;;;;;5080205;28;20928;-79
2023/01/28 12:58:48;;;;;;;17.67;11.97;;;;;;;;;;5079340;28;20470;-80
2023/01/28 13:01:16;;;;;;;17.90;10.80;;;;;;;;;;5082118;28;20482;-79
2023/01/28 13:03:47;;;;;;;20.13;12.10;;;;;;;;;;5078662;28;20477;-80
2023/01/28 13:06:15;;;;;;;15.50;10.90;;;;;;;;;;5080587;28;20466;-79
2023/01/28 13:08:41;;;;;;;15.87;10.13;;;;;;;;;;5081254;28;20471;-79
2023/01/28 13:11:12;;;;;;;14.33;10.97;;;;;;;;;;5080756;28;20447;-79
2023/01/28 13:13:41;;;;;;;20.43;14.30;;;;;;;;;;5080534;28;20479;-79
2023/01/28 13:16:10;;;;;;;17.00;12.63;;;;;;;;;;5080394;28;20455;-79
2023/01/28 13:18:43;;;;;;;19.13;12.17;;;;;;;;;;5079608;28;20473;-79
2023/01/28 13:21:13;;;;;;;17.33;12.20;;;;;;;;;;5080596;28;20470;-79
2023/01/28 13:23:41;;;;;;;17.83;12.30;;;;;;;;;;5079247;28;20482;-79
2023/01/28 13:26:26;;;;;;;18.93;12.13;;;;;;;;;;5080402;28;20455;-79
2023/01/28 13:28:53;;;;;;;17.80;12.43;;;;;;;;;;5079157;28;20470;-80
2023/01/28 13:31:22;;;;;;;17.87;12.47;;;;;;;;;;5079656;28;20441;-80
2023/01/28 13:34:01;;;;;;;16.73;11.30;;;;;;;;;;5080521;28;20496;-79
2023/01/28 13:36:29;;;;;;;17.20;12.70;;;;;;;;;;5080770;28;20450;-79
2023/01/28 13:39:04;;;;;;;18.70;13.03;;;;;;;;;;5079536;28;20478;-79
2023/01/28 13:41:40;;;;;;;14.70;11.03;;;;;;;;;;5081490;28;20486;-79
2023/01/28 13:44:17;;;;;;;16.03;11.80;;;;;;;;;;5081232;27;20474;-79
2023/01/28 13:46:45;;;;;;;15.80;11.40;;;;;;;;;;5080539;28;20471;-79
2023/01/28 13:49:15;;;;;;;14.33;11.07;;;;;;;;;;5080724;28;20467;-79
2023/01/28 13:51:45;;;;;;;15.00;11.60;;;;;;;;;;5079697;28;20439;-79
2023/01/28 13:54:14;;;;;;;16.73;10.73;;;;;;;;;;5077805;28;20467;-79
2023/01/28 13:56:50;;;;;;;14.80;10.70;;;;;;;;;;5081201;28;20459;-79
2023/01/28 13:59:29;;;;;;;15.93;10.50;;;;;;;;;;5079042;28;20486;-79
2023/01/28 14:02:29;;;;;;;15.03;10.50;;;;;;;;;;5079748;28;20477;-79
2023/01/28 14:05:16;;;;;;;16.47;11.90;;;;;;;;;;5006007;28;21040;-79
2023/01/28 14:08:10;;;;;;;15.77;10.57;;;;;;;;;;5004159;28;20488;-79
2023/01/28 14:10:48;;;;;;;15.93;11.17;;;;;;;;;;5059859;28;20473;-79
2023/01/28 14:13:29;;;;;;;13.83;9.87;;;;;;;;;;5077845;28;20998;-79
2023/01/28 14:15:58;;;;;;;13.87;9.73;;;;;;;;;;5078891;28;20481;-79
2023/01/28 14:18:41;;;;;;;14.07;10.00;;;;;;;;;;5080537;28;20470;-79
2023/01/28 14:21:11;;;;;;;20.33;10.90;;;;;;;;;;5078621;28;20486;-79
2023/01/28 14:23:39;;;;;;;14.83;10.43;;;;;;;;;;5080007;28;20477;-79
2023/01/28 14:26:16;;;;;;;14.07;10.53;;;;;;;;;;5078302;28;20443;-79
2023/01/28 14:28:48;;;;;;;14.73;11.40;;;;;;;;;;5077801;28;20473;-79
2023/01/28 14:31:16;;;;;;;15.67;11.13;;;;;;;;;;5079051;28;20446;-79
2023/01/28 14:33:43;;;;;;;15.70;11.17;;;;;;;;;;5078499;28;20473;-79
2023/01/28 14:36:10;;;;;;;18.33;11.63;;;;;;;;;;5081271;28;20455;-79
2023/01/28 14:38:39;;;;;;;17.30;12.30;;;;;;;;;;5079145;28;20632;-79
2023/01/28 14:41:06;;;;;;;15.63;10.40;;;;;;;;;;5081021;28;20508;-79
2023/01/28 14:43:34;;;;;;;17.20;11.40;;;;;;;;;;5079547;28;20469;-79
2023/01/28 14:46:12;;;;;;;15.17;10.57;;;;;;;;;;5078325;28;20449;-79
2023/01/28 14:48:44;;;;;;;18.20;11.43;;;;;;;;;;5078364;28;20469;-79
2023/01/28 14:51:22;;;;;;;14.93;11.77;;;;;;;;;;5080399;28;20837;-79
2023/01/28 14:54:04;;;;;;;15.77;10.73;;;;;;;;;;5078382;28;20475;-79
2023/01/28 14:56:36;;;;;;;16.40;11.17;;;;;;;;;;5076466;28;20476;-79
2023/01/28 14:59:07;;;;;;;14.20;10.30;;;;;;;;;;5082545;28;20986;-79
2023/01/28 15:01:33;;;;;;;14.73;11.07;;;;;;;;;;5084437;28;20478;-79
2023/01/28 15:03:59;;;;;;;17.37;12.63;;;;;;;;;;5081679;28;20478;-79
2023/01/28 15:06:30;;;;;;;19.73;13.30;;;;;;;;;;5084187;28;20456;-79